sensor_id;sensor_type;location;lat;lon;timestamp;pressure;altitude;pressure_sealevel;temperature
69857;BMP280;57147;53.582;10.112;2023-09-08T00:04:01;101967.09;;;19.49
69857;BMP280;57147;53.582;10.112;2023-09-08T00:09:05;101930.97;;;19.20
69857;BMP280;57147;53.582;10.112;2023-09-08T00:14:06;101972.13;;;19.29
69857;BMP280;57147;53.582;10.112;2023-09-08T00:19:06;101961.97;;;19.26
69857;BMP280;57147;53.582;10.112;2023-09-08T00:24:10;101965.00;;;19.25
69857;BMP280;57147;53.582;10.112;2023-09-08T00:29:10;101949.72;;;19.08
69857;BMP280;57147;53.582;10.112;2023-09-08T00:34:12;101960.91;;;19.19
69857;BMP280;57147;53.582;10.112;2023-09-08T00:39:15;101949.41;;;19.01
69857;BMP280;57147;53.582;10.112;2023-09-08T00:44:17;101939.41;;;19.02
69857;BMP280;57147;53.582;10.112;2023-09-08T00:49:17;101931.03;;;19.03
69857;BMP280;57147;53.582;10.112;2023-09-08T00:54:21;101931.31;;;19.10
69857;BMP280;57147;53.582;10.112;2023-09-08T00:59:21;101930.38;;;19.06
69857;BMP280;57147;53.582;10.112;2023-09-08T01:04:22;101931.50;;;18.97
69857;BMP280;57147;53.582;10.112;2023-09-08T01:09:26;101926.47;;;18.95
69857;BMP280;57147;53.582;10.112;2023-09-08T01:14:27;101896.25;;;18.81
69857;BMP280;57147;53.582;10.112;2023-09-08T01:19:28;101916.97;;;18.89
69857;BMP280;57147;53.582;10.112;2023-09-08T01:24:57;101929.78;;;18.92
69857;BMP280;57147;53.582;10.112;2023-09-08T01:29:59;101923.81;;;18.78
69857;BMP280;57147;53.582;10.112;2023-09-08T01:35:02;101897.97;;;18.47
69857;BMP280;57147;53.582;10.112;2023-09-08T01:40:07;101924.06;;;18.47
69857;BMP280;57147;53.582;10.112;2023-09-08T01:45:08;101927.22;;;18.40
69857;BMP280;57147;53.582;10.112;2023-09-08T01:50:09;101889.75;;;18.18
69857;BMP280;57147;53.582;10.112;2023-09-08T01:55:12;101926.44;;;18.31
69857;BMP280;57147;53.582;10.112;2023-09-08T02:00:14;101889.13;;;18.04
69857;BMP280;57147;53.582;10.112;2023-09-08T02:05:14;101904.78;;;18.11
69857;BMP280;57147;53.582;10.112;2023-09-08T02:10:18;101915.84;;;18.09
69857;BMP280;57147;53.582;10.112;2023-09-08T02:15:18;101910.44;;;18.00
69857;BMP280;57147;53.582;10.112;2023-09-08T02:20:19;101907.16;;;17.95
69857;BMP280;57147;53.582;10.112;2023-09-08T02:25:23;101912.97;;;17.97
69857;BMP280;57147;53.582;10.112;2023-09-08T02:30:24;101913.28;;;17.95
69857;BMP280;57147;53.582;10.112;2023-09-08T02:35:24;101911.38;;;17.87
69857;BMP280;57147;53.582;10.112;2023-09-08T02:40:28;101906.53;;;17.81
69857;BMP280;57147;53.582;10.112;2023-09-08T02:45:28;101910.00;;;17.73
69857;BMP280;57147;53.582;10.112;2023-09-08T02:50:29;101907.25;;;17.64
69857;BMP280;57147;53.582;10.112;2023-09-08T02:55:32;101909.47;;;17.62
69857;BMP280;57147;53.582;10.112;2023-09-08T03:00:33;101917.19;;;17.55
69857;BMP280;57147;53.582;10.112;2023-09-08T03:05:34;101917.97;;;17.47
69857;BMP280;57147;53.582;10.112;2023-09-08T03:10:37;101855.44;;;17.07
69857;BMP280;57147;53.582;10.112;2023-09-08T03:15:40;101906.88;;;17.40
69857;BMP280;57147;53.582;10.112;2023-09-08T03:20:41;101881.38;;;17.20
69857;BMP280;57147;53.582;10.112;2023-09-08T03:25:44;101899.91;;;17.30
69857;BMP280;57147;53.582;10.112;2023-09-08T03:30:45;101889.47;;;17.29
69857;BMP280;57147;53.582;10.112;2023-09-08T03:35:46;101900.38;;;17.32
69857;BMP280;57147;53.582;10.112;2023-09-08T03:40:49;101896.13;;;17.31
69857;BMP280;57147;53.582;10.112;2023-09-08T03:45:50;101885.97;;;17.28
69857;BMP280;57147;53.582;10.112;2023-09-08T03:50:50;101893.13;;;17.41
69857;BMP280;57147;53.582;10.112;2023-09-08T03:55:53;101883.97;;;17.42
69857;BMP280;57147;53.582;10.112;2023-09-08T04:00:54;101877.94;;;17.28
69857;BMP280;57147;53.582;10.112;2023-09-08T04:05:55;101850.69;;;17.04
69857;BMP280;57147;53.582;10.112;2023-09-08T04:11:00;101880.41;;;17.16
69857;BMP280;57147;53.582;10.112;2023-09-08T04:16:01;101869.00;;;17.02
69857;BMP280;57147;53.582;10.112;2023-09-08T04:21:02;101885.22;;;16.97
69857;BMP280;57147;53.582;10.112;2023-09-08T04:26:05;101884.13;;;16.98
69857;BMP280;57147;53.582;10.112;2023-09-08T04:31:05;101842.50;;;16.70
69857;BMP280;57147;53.582;10.112;2023-09-08T04:36:06;101870.69;;;16.89
69857;BMP280;57147;53.582;10.112;2023-09-08T04:41:09;101827.94;;;16.62
69857;BMP280;57147;53.582;10.112;2023-09-08T04:46:10;101860.03;;;16.76
69857;BMP280;57147;53.582;10.112;2023-09-08T04:51:10;101821.44;;;16.54
69857;BMP280;57147;53.582;10.112;2023-09-08T04:56:14;101862.97;;;16.88
69857;BMP280;57147;53.582;10.112;2023-09-08T05:01:14;101849.84;;;16.86
69857;BMP280;57147;53.582;10.112;2023-09-08T05:06:15;101822.16;;;16.69
69857;BMP280;57147;53.582;10.112;2023-09-08T05:11:18;101854.41;;;16.86
69857;BMP280;57147;53.582;10.112;2023-09-08T05:16:19;101861.59;;;17.07
69857;BMP280;57147;53.582;10.112;2023-09-08T05:21:19;101833.31;;;17.01
69857;BMP280;57147;53.582;10.112;2023-09-08T05:26:23;101855.50;;;17.24
69857;BMP280;57147;53.582;10.112;2023-09-08T05:31:23;101831.84;;;17.26
69857;BMP280;57147;53.582;10.112;2023-09-08T05:36:24;101855.25;;;17.51
69857;BMP280;57147;53.582;10.112;2023-09-08T05:41:27;101835.19;;;17.49
69857;BMP280;57147;53.582;10.112;2023-09-08T05:46:27;101836.47;;;17.60
69857;BMP280;57147;53.582;10.112;2023-09-08T05:51:28;101832.06;;;17.64
69857;BMP280;57147;53.582;10.112;2023-09-08T05:56:33;101826.38;;;17.74
69857;BMP280;57147;53.582;10.112;2023-09-08T06:01:36;101851.31;;;17.83
69857;BMP280;57147;53.582;10.112;2023-09-08T06:06:37;101839.97;;;17.95
69857;BMP280;57147;53.582;10.112;2023-09-08T06:11:40;101837.59;;;18.02
69857;BMP280;57147;53.582;10.112;2023-09-08T06:16:41;101821.91;;;17.95
69857;BMP280;57147;53.582;10.112;2023-09-08T06:21:41;101855.75;;;18.22
69857;BMP280;57147;53.582;10.112;2023-09-08T06:26:44;101834.41;;;18.17
69857;BMP280;57147;53.582;10.112;2023-09-08T06:31:45;101817.50;;;18.08
69857;BMP280;57147;53.582;10.112;2023-09-08T06:36:46;101846.38;;;18.45
69857;BMP280;57147;53.582;10.112;2023-09-08T06:41:49;101846.38;;;18.45
69857;BMP280;57147;53.582;10.112;2023-09-08T06:46:50;101861.53;;;18.59
69857;BMP280;57147;53.582;10.112;2023-09-08T06:51:50;101849.19;;;18.58
69857;BMP280;57147;53.582;10.112;2023-09-08T06:56:53;101850.41;;;18.69
69857;BMP280;57147;53.582;10.112;2023-09-08T07:01:54;101847.97;;;18.84
69857;BMP280;57147;53.582;10.112;2023-09-08T07:06:55;101826.56;;;18.88
69857;BMP280;57147;53.582;10.112;2023-09-08T07:11:58;101845.34;;;19.05
69857;BMP280;57147;53.582;10.112;2023-09-08T07:16:59;101835.78;;;19.16
69857;BMP280;57147;53.582;10.112;2023-09-08T07:21:59;101806.53;;;19.06
69857;BMP280;57147;53.582;10.112;2023-09-08T07:27:04;101778.69;;;19.02
69857;BMP280;57147;53.582;10.112;2023-09-08T07:33:11;101813.66;;;19.31
69857;BMP280;57147;53.582;10.112;2023-09-08T07:37:57;101738.38;;;18.93
69857;BMP280;57147;53.582;10.112;2023-09-08T07:43:01;101720.16;;;18.99
69857;BMP280;57147;53.582;10.112;2023-09-08T07:48:02;101728.03;;;19.04
69857;BMP280;57147;53.582;10.112;2023-09-08T07:53:03;101723.94;;;19.19
69857;BMP280;57147;53.582;10.112;2023-09-08T07:58:08;101712.25;;;19.15
69857;BMP280;57147;53.582;10.112;2023-09-08T08:03:11;101815.31;;;19.98
69857;BMP280;57147;53.582;10.112;2023-09-08T08:08:16;101620.88;;;18.77
69857;BMP280;57147;53.582;10.112;2023-09-08T08:13:20;101800.28;;;20.09
69857;BMP280;57147;53.582;10.112;2023-09-08T08:18:23;101627.97;;;19.02
69857;BMP280;57147;53.582;10.112;2023-09-08T08:23:36;101777.63;;;20.10
69857;BMP280;57147;53.582;10.112;2023-09-08T08:28:40;101723.06;;;19.80
69857;BMP280;57147;53.582;10.112;2023-09-08T08:33:47;101806.19;;;20.48
69857;BMP280;57147;53.582;10.112;2023-09-08T08:38:48;101784.47;;;20.44
69857;BMP280;57147;53.582;10.112;2023-09-08T08:43:53;101722.69;;;20.15
69857;BMP280;57147;53.582;10.112;2023-09-08T08:48:57;101739.00;;;20.30
69857;BMP280;57147;53.582;10.112;2023-09-08T08:54:01;101724.94;;;20.37
69857;BMP280;57147;53.582;10.112;2023-09-08T08:59:05;101811.56;;;21.08
69857;BMP280;57147;53.582;10.112;2023-09-08T09:04:07;101692.66;;;20.41
69857;BMP280;57147;53.582;10.112;2023-09-08T09:09:10;101794.88;;;21.18
69857;BMP280;57147;53.582;10.112;2023-09-08T09:14:17;101816.06;;;21.44
69857;BMP280;57147;53.582;10.112;2023-09-08T09:19:18;101739.53;;;21.12
69857;BMP280;57147;53.582;10.112;2023-09-08T09:24:29;101793.16;;;21.54
69857;BMP280;57147;53.582;10.112;2023-09-08T09:29:33;101791.72;;;21.72
69857;BMP280;57147;53.582;10.112;2023-09-08T09:34:35;101753.28;;;21.63
69857;BMP280;57147;53.582;10.112;2023-09-08T09:39:35;101793.63;;;21.99
69857;BMP280;57147;53.582;10.112;2023-09-08T09:44:41;101794.03;;;22.17
69857;BMP280;57147;53.582;10.112;2023-09-08T09:49:43;101796.28;;;22.30
69857;BMP280;57147;53.582;10.112;2023-09-08T09:54:44;101780.69;;;22.40
69857;BMP280;57147;53.582;10.112;2023-09-08T09:59:48;101765.47;;;22.51
69857;BMP280;57147;53.582;10.112;2023-09-08T10:04:48;101765.94;;;22.72
69857;BMP280;57147;53.582;10.112;2023-09-08T10:09:49;101758.13;;;22.86
69857;BMP280;57147;53.582;10.112;2023-09-08T10:14:55;101764.97;;;22.99
69857;BMP280;57147;53.582;10.112;2023-09-08T10:20:00;101731.31;;;23.00
69857;BMP280;57147;53.582;10.112;2023-09-08T10:25:04;101760.94;;;23.31
69857;BMP280;57147;53.582;10.112;2023-09-08T10:30:09;101765.19;;;23.52
69857;BMP280;57147;53.582;10.112;2023-09-08T10:35:10;101758.75;;;23.60
69857;BMP280;57147;53.582;10.112;2023-09-08T10:40:21;101742.69;;;23.70
69857;BMP280;57147;53.582;10.112;2023-09-08T10:45:25;101747.56;;;23.84
69857;BMP280;57147;53.582;10.112;2023-09-08T10:50:29;101745.16;;;24.05
69857;BMP280;57147;53.582;10.112;2023-09-08T10:55:42;101720.31;;;24.03
69857;BMP280;57147;53.582;10.112;2023-09-08T11:00:47;101730.75;;;24.27
69857;BMP280;57147;53.582;10.112;2023-09-08T11:05:47;101728.47;;;24.29
69857;BMP280;57147;53.582;10.112;2023-09-08T11:10:49;101745.16;;;24.58
69857;BMP280;57147;53.582;10.112;2023-09-08T11:15:53;101754.03;;;24.88
69857;BMP280;57147;53.582;10.112;2023-09-08T11:20:54;101753.81;;;25.04
69857;BMP280;57147;53.582;10.112;2023-09-08T11:25:55;101751.66;;;25.20
69857;BMP280;57147;53.582;10.112;2023-09-08T11:30:58;101745.13;;;25.24
69857;BMP280;57147;53.582;10.112;2023-09-08T11:35:59;101756.94;;;25.42
69857;BMP280;57147;53.582;10.112;2023-09-08T11:41:01;101729.38;;;25.40
69857;BMP280;57147;53.582;10.112;2023-09-08T11:46:04;101668.13;;;25.13
69857;BMP280;57147;53.582;10.112;2023-09-08T11:51:07;101738.88;;;25.68
69857;BMP280;57147;53.582;10.112;2023-09-08T11:56:08;101761.22;;;25.91
69857;BMP280;57147;53.582;10.112;2023-09-08T12:01:12;101774.22;;;26.15
69857;BMP280;57147;53.582;10.112;2023-09-08T12:06:13;101764.16;;;26.23
69857;BMP280;57147;53.582;10.112;2023-09-08T12:11:14;101767.66;;;26.23
69857;BMP280;57147;53.582;10.112;2023-09-08T12:16:21;101762.28;;;26.37
69857;BMP280;57147;53.582;10.112;2023-09-08T12:21:22;101726.13;;;26.33
69857;BMP280;57147;53.582;10.112;2023-09-08T12:26:24;101750.72;;;26.65
69857;BMP280;57147;53.582;10.112;2023-09-08T12:31:28;101749.25;;;26.89
69857;BMP280;57147;53.582;10.112;2023-09-08T12:36:28;101737.59;;;26.99
69857;BMP280;57147;53.582;10.112;2023-09-08T12:41:29;101745.81;;;27.13
69857;BMP280;57147;53.582;10.112;2023-09-08T12:46:32;101737.25;;;27.25
69857;BMP280;57147;53.582;10.112;2023-09-08T12:51:34;101739.16;;;27.35
69857;BMP280;57147;53.582;10.112;2023-09-08T12:56:35;101739.94;;;27.53
69857;BMP280;57147;53.582;10.112;2023-09-08T13:01:40;101722.38;;;27.76
69857;BMP280;57147;53.582;10.112;2023-09-08T13:06:41;101730.94;;;27.85
69857;BMP280;57147;53.582;10.112;2023-09-08T13:11:42;101705.97;;;27.79
69857;BMP280;57147;53.582;10.112;2023-09-08T13:16:45;101735.19;;;28.07
69857;BMP280;57147;53.582;10.112;2023-09-08T13:21:45;101754.59;;;28.26
69857;BMP280;57147;53.582;10.112;2023-09-08T13:26:46;101745.22;;;28.31
69857;BMP280;57147;53.582;10.112;2023-09-08T13:31:49;101773.63;;;28.51
69857;BMP280;57147;53.582;10.112;2023-09-08T13:36:50;101754.44;;;28.58
69857;BMP280;57147;53.582;10.112;2023-09-08T13:41:51;101759.03;;;28.75
69857;BMP280;57147;53.582;10.112;2023-09-08T13:46:55;101718.91;;;28.65
69857;BMP280;57147;53.582;10.112;2023-09-08T13:51:56;101721.16;;;28.77
69857;BMP280;57147;53.582;10.112;2023-09-08T13:57:00;101724.94;;;28.98
69857;BMP280;57147;53.582;10.112;2023-09-08T14:02:09;101738.50;;;29.08
69857;BMP280;57147;53.582;10.112;2023-09-08T14:07:10;101718.19;;;29.06
69857;BMP280;57147;53.582;10.112;2023-09-08T14:12:10;101721.97;;;29.22
69857;BMP280;57147;53.582;10.112;2023-09-08T14:17:14;101728.91;;;29.34
69857;BMP280;57147;53.582;10.112;2023-09-08T14:22:14;101715.59;;;29.36
69857;BMP280;57147;53.582;10.112;2023-09-08T14:27:15;101705.38;;;29.40
69857;BMP280;57147;53.582;10.112;2023-09-08T14:32:18;101709.31;;;29.39
69857;BMP280;57147;53.582;10.112;2023-09-08T14:37:19;101697.63;;;29.35
69857;BMP280;57147;53.582;10.112;2023-09-08T14:42:22;101709.88;;;29.61
69857;BMP280;57147;53.582;10.112;2023-09-08T14:47:26;101701.19;;;29.69
69857;BMP280;57147;53.582;10.112;2023-09-08T14:52:27;101705.06;;;29.72
69857;BMP280;57147;53.582;10.112;2023-09-08T14:57:27;101690.16;;;29.76
69857;BMP280;57147;53.582;10.112;2023-09-08T15:02:31;101685.31;;;29.87
69857;BMP280;57147;53.582;10.112;2023-09-08T15:13:02;101698.16;;;29.90
69857;BMP280;57147;53.582;10.112;2023-09-08T15:18:06;101682.31;;;29.78
69857;BMP280;57147;53.582;10.112;2023-09-08T15:23:07;101695.53;;;29.87
69857;BMP280;57147;53.582;10.112;2023-09-08T15:28:08;101681.53;;;29.78
69857;BMP280;57147;53.582;10.112;2023-09-08T15:33:11;101687.00;;;29.78
69857;BMP280;57147;53.582;10.112;2023-09-08T15:38:12;101681.53;;;29.78
69857;BMP280;57147;53.582;10.112;2023-09-08T15:43:13;101686.22;;;29.77
69857;BMP280;57147;53.582;10.112;2023-09-08T15:48:16;101654.44;;;29.53
69857;BMP280;57147;53.582;10.112;2023-09-08T15:53:16;101687.13;;;29.67
69857;BMP280;57147;53.582;10.112;2023-09-08T15:58:17;101673.97;;;29.55
69857;BMP280;57147;53.582;10.112;2023-09-08T16:03:20;101676.34;;;29.53
69857;BMP280;57147;53.582;10.112;2023-09-08T16:08:22;101696.63;;;29.56
69857;BMP280;57147;53.582;10.112;2023-09-08T16:13:23;101681.16;;;29.42
69857;BMP280;57147;53.582;10.112;2023-09-08T16:18:26;101662.84;;;29.32
69857;BMP280;57147;53.582;10.112;2023-09-08T16:23:27;101681.88;;;29.46
69857;BMP280;57147;53.582;10.112;2023-09-08T16:28:27;101678.00;;;29.40
69857;BMP280;57147;53.582;10.112;2023-09-08T16:33:30;101679.13;;;29.09
69857;BMP280;57147;53.582;10.112;2023-09-08T16:38:31;101688.81;;;28.69
69857;BMP280;57147;53.582;10.112;2023-09-08T16:43:32;101678.09;;;28.30
69857;BMP280;57147;53.582;10.112;2023-09-08T16:48:35;101679.03;;;27.99
69857;BMP280;57147;53.582;10.112;2023-09-08T16:53:35;101676.75;;;27.80
69857;BMP280;57147;53.582;10.112;2023-09-08T16:58:36;101673.69;;;27.63
69857;BMP280;57147;53.582;10.112;2023-09-08T17:03:39;101679.16;;;27.46
69857;BMP280;57147;53.582;10.112;2023-09-08T17:08:39;101675.28;;;27.29
69857;BMP280;57147;53.582;10.112;2023-09-08T17:13:40;101676.09;;;27.19
69857;BMP280;57147;53.582;10.112;2023-09-08T17:18:43;101673.72;;;27.00
69857;BMP280;57147;53.582;10.112;2023-09-08T17:23:44;101656.19;;;26.76
69857;BMP280;57147;53.582;10.112;2023-09-08T17:28:46;101655.75;;;26.60
69857;BMP280;57147;53.582;10.112;2023-09-08T17:33:49;101643.25;;;26.34
69857;BMP280;57147;53.582;10.112;2023-09-08T17:38:50;101635.38;;;26.15
69857;BMP280;57147;53.582;10.112;2023-09-08T17:43:50;101658.66;;;26.05
69857;BMP280;57147;53.582;10.112;2023-09-08T17:48:53;101665.59;;;25.89
69857;BMP280;57147;53.582;10.112;2023-09-08T17:53:54;101662.75;;;25.71
69857;BMP280;57147;53.582;10.112;2023-09-08T17:58:55;101655.25;;;25.51
69857;BMP280;57147;53.582;10.112;2023-09-08T18:03:58;101655.06;;;25.29
69857;BMP280;57147;53.582;10.112;2023-09-08T18:08:58;101647.94;;;25.14
69857;BMP280;57147;53.582;10.112;2023-09-08T18:13:59;101596.72;;;24.72
69857;BMP280;57147;53.582;10.112;2023-09-08T18:19:02;101625.13;;;24.82
69857;BMP280;57147;53.582;10.112;2023-09-08T18:24:03;101627.38;;;24.73
69857;BMP280;57147;53.582;10.112;2023-09-08T18:29:04;101634.25;;;24.60
69857;BMP280;57147;53.582;10.112;2023-09-08T18:34:07;101596.53;;;24.21
69857;BMP280;57147;53.582;10.112;2023-09-08T18:39:08;101587.38;;;24.03
69857;BMP280;57147;53.582;10.112;2023-09-08T18:44:09;101568.97;;;23.89
69857;BMP280;57147;53.582;10.112;2023-09-08T18:49:12;101611.94;;;24.14
69857;BMP280;57147;53.582;10.112;2023-09-08T18:54:16;101636.88;;;24.23
69857;BMP280;57147;53.582;10.112;2023-09-08T18:59:16;101579.25;;;23.73
69857;BMP280;57147;53.582;10.112;2023-09-08T19:04:26;101592.84;;;23.77
69857;BMP280;57147;53.582;10.112;2023-09-08T19:09:41;101597.16;;;23.78
69857;BMP280;57147;53.582;10.112;2023-09-08T19:14:42;101596.56;;;23.65
69857;BMP280;57147;53.582;10.112;2023-09-08T19:19:45;101626.13;;;23.74
69857;BMP280;57147;53.582;10.112;2023-09-08T19:24:50;101631.84;;;23.69
69857;BMP280;57147;53.582;10.112;2023-09-08T19:29:51;101476.78;;;22.58
69857;BMP280;57147;53.582;10.112;2023-09-08T19:34:54;101631.94;;;23.50
69857;BMP280;57147;53.582;10.112;2023-09-08T19:39:55;101631.84;;;23.43
69857;BMP280;57147;53.582;10.112;2023-09-08T19:44:57;101620.63;;;23.44
69857;BMP280;57147;53.582;10.112;2023-09-08T19:50:00;101621.72;;;23.40
69857;BMP280;57147;53.582;10.112;2023-09-08T19:55:02;101574.19;;;23.00
69857;BMP280;57147;53.582;10.112;2023-09-08T20:00:03;101613.63;;;23.20
69857;BMP280;57147;53.582;10.112;2023-09-08T20:05:07;101566.19;;;22.84
69857;BMP280;57147;53.582;10.112;2023-09-08T20:10:10;101622.19;;;23.22
69857;BMP280;57147;53.582;10.112;2023-09-08T20:15:14;101622.19;;;23.22
69857;BMP280;57147;53.582;10.112;2023-09-08T20:20:18;101598.53;;;22.97
69857;BMP280;57147;53.582;10.112;2023-09-08T20:25:18;101579.19;;;22.75
69857;BMP280;57147;53.582;10.112;2023-09-08T20:30:19;101440.69;;;21.70
69857;BMP280;57147;53.582;10.112;2023-09-08T20:35:22;101602.09;;;22.59
69857;BMP280;57147;53.582;10.112;2023-09-08T20:40:24;101453.06;;;21.37
69857;BMP280;57147;53.582;10.112;2023-09-08T20:45:25;101454.44;;;21.30
69857;BMP280;57147;53.582;10.112;2023-09-08T20:50:28;101510.53;;;21.53
69857;BMP280;57147;53.582;10.112;2023-09-08T20:55:29;101532.88;;;21.50
69857;BMP280;57147;53.582;10.112;2023-09-08T21:00:29;101557.63;;;21.52
69857;BMP280;57147;53.582;10.112;2023-09-08T21:05:33;101531.44;;;21.21
69857;BMP280;57147;53.582;10.112;2023-09-08T21:10:33;101506.53;;;20.84
69857;BMP280;57147;53.582;10.112;2023-09-08T21:15:34;101598.06;;;21.32
69857;BMP280;57147;53.582;10.112;2023-09-08T21:20:37;101553.94;;;20.97
69857;BMP280;57147;53.582;10.112;2023-09-08T21:25:38;101586.03;;;21.14
69857;BMP280;57147;53.582;10.112;2023-09-08T21:30:38;101579.56;;;21.03
69857;BMP280;57147;53.582;10.112;2023-09-08T21:35:42;101541.69;;;20.72
69857;BMP280;57147;53.582;10.112;2023-09-08T21:40:42;101546.91;;;20.65
69857;BMP280;57147;53.582;10.112;2023-09-08T21:45:43;101580.44;;;20.79
69857;BMP280;57147;53.582;10.112;2023-09-08T21:50:46;101570.06;;;20.66
69857;BMP280;57147;53.582;10.112;2023-09-08T21:55:47;101579.78;;;20.55
69857;BMP280;57147;53.582;10.112;2023-09-08T22:00:47;101558.94;;;20.40
69857;BMP280;57147;53.582;10.112;2023-09-08T22:05:50;101571.91;;;20.50
69857;BMP280;57147;53.582;10.112;2023-09-08T22:10:51;101583.38;;;20.47
69857;BMP280;57147;53.582;10.112;2023-09-08T22:15:52;101542.81;;;20.15
69857;BMP280;57147;53.582;10.112;2023-09-08T22:20:55;101582.97;;;20.32
69857;BMP280;57147;53.582;10.112;2023-09-08T22:25:56;101576.69;;;20.28
69857;BMP280;57147;53.582;10.112;2023-09-08T22:30:56;101574.47;;;20.18
69857;BMP280;57147;53.582;10.112;2023-09-08T22:36:00;101576.97;;;19.99
69857;BMP280;57147;53.582;10.112;2023-09-08T22:41:01;101577.88;;;19.91
69857;BMP280;57147;53.582;10.112;2023-09-08T22:46:02;101565.72;;;19.85
69857;BMP280;57147;53.582;10.112;2023-09-08T22:51:05;101564.81;;;19.69
69857;BMP280;57147;53.582;10.112;2023-09-08T22:56:05;101561.56;;;19.63
69857;BMP280;57147;53.582;10.112;2023-09-08T23:01:06;101559.03;;;19.55
69857;BMP280;57147;53.582;10.112;2023-09-08T23:12:04;101558.75;;;19.35
69857;BMP280;57147;53.582;10.112;2023-09-08T23:17:05;101532.88;;;19.10
69857;BMP280;57147;53.582;10.112;2023-09-08T23:22:06;101547.84;;;19.20
69857;BMP280;57147;53.582;10.112;2023-09-08T23:27:15;101543.66;;;19.10
69857;BMP280;57147;53.582;10.112;2023-09-08T23:32:16;101551.91;;;19.05
69857;BMP280;57147;53.582;10.112;2023-09-08T23:37:16;101544.59;;;18.93
69857;BMP280;57147;53.582;10.112;2023-09-08T23:42:19;101556.81;;;18.91
69857;BMP280;57147;53.582;10.112;2023-09-08T23:47:20;101548.94;;;18.86
69857;BMP280;57147;53.582;10.112;2023-09-08T23:52:21;101541.53;;;18.83
69857;BMP280;57147;53.582;10.112;2023-09-08T23:57:24;101528.34;;;18.69
